South Mason Valley, Nevada Weather observations

Data are for 10 minute period ending at time listed.
 Day   Time   Solar   Ave.   Ave.  Ave.  Vector  Max.   Baro.   Total    
  of    of     Rad.   Air    Rel.  Wind   Wind   Wind  Press.  Precip.   
Year   Day            Temp.  Hum.  Speed  Dir.   Gust                    
2014   (PST)  Kw/m2    F      %     mph   deg.    mph    mb.     in.     
-------------------------------------------------------------------------
 329   14:50   0.26   60.6    18    2.4   137     4.5   890.8    0.00 
 329   15:00   0.24   60.3    19    3.0    76     5.2   890.9    0.00 
 329   15:10   0.21   60.0    19    2.3   116     3.8   890.9    0.00 
 329   15:20   0.19   59.6    19    3.1    86     5.7   890.8    0.00 
 329   15:30   0.16   59.4    20    3.0    75     5.8   890.8    0.00 
 329   15:40   0.14   59.2    20    2.5    75     3.8   890.7    0.00 
 329   15:50   0.11   59.3    20    1.6    60     3.2   890.7    0.00 
 329   16:00   0.09   58.8    20    0.8    62     2.9   890.6    0.00 
 329   16:10   0.07   58.6    20    1.5    67     2.4   890.5    0.00 
 329   16:20   0.05   57.1    21    1.3    39     2.4   890.5    0.00 
 329   16:30   0.02   54.6    24    1.5    32     2.1   890.5    0.00 
 329   16:40   0.01   53.1    26    1.2    41     1.5   890.4    0.00 
 329   16:50   0.01   50.8    28    0.1    61     0.7   890.4    0.00 
 329   17:00   0.00   48.5    30    0.1   293     1.0   890.4    0.00 
 329   17:10   0.00   49.5    29    1.3   282     1.8   890.4    0.00 
 329   17:20   0.00   49.0    30    1.5   285     2.3   890.6    0.00 
 329   17:30   0.00   46.7    32    0.0     0     0.0   890.7    0.00 
 329   17:40   0.00   46.1    34    0.7    30     1.5   890.7    0.00 
 329   17:50   0.00   46.5    33    1.6    15     2.2   890.8    0.00 
 329   18:00   0.00   45.4    34    2.0    16     2.8   890.7    0.00 
 329   18:10   0.00   44.4    37    2.8     6     3.5   890.8    0.00 
 329   18:20   0.00   43.1    39    2.5   356     3.1   890.9    0.00 
 329   18:30   0.00   43.1    40    2.3   352     2.8   891.0    0.00 
 329   18:40   0.00   43.0    40    1.8   339     2.5   891.0    0.00 
 329   18:50   0.00   41.8    41    1.6     8     2.6   891.0    0.00 
 329   19:00   0.00   39.7    45    2.4    39     3.5   891.1    0.00 
 329   19:10   0.00   39.0    46    2.7   332     4.2   891.3    0.00 
 329   19:20   0.00   38.7    47    2.2   328     2.9   891.2    0.00 
 329   19:30   0.00   36.8    50    2.1     3     3.1   891.3    0.00 
 329   19:40   0.00   36.9    50    1.3    22     2.8   891.3    0.00 
 329   19:50   0.00   35.1    55    0.9   352     2.3   891.3    0.00 
 329   20:00   0.00   36.0    52    2.4   319     2.9   891.4    0.00 
 329   20:10   0.00   34.4    55    2.0   330     2.6   891.5    0.00 
 329   20:20   0.00   34.3    55    1.3   314     2.6   891.6    0.00 
 329   20:30   0.00   32.0    59    2.2   266     3.3   891.7    0.00 
 329   20:40   0.00   32.1    60    2.9   283     3.4   891.8    0.00 
 329   20:50   0.00   32.8    58    2.4   308     3.5   891.8    0.00 
 329   21:00   0.00   33.2    58    2.9   314     3.6   891.8    0.00 
 329   21:10   0.00   33.3    56    1.2   322     2.7   891.8    0.00 
 329   21:20   0.00   31.6    60    2.6   292     3.9   891.8    0.00 
 329   21:30   0.00   28.7    64    3.4   304     4.5   891.8    0.00 
 329   21:40   0.00   29.2    65    2.5   289     3.5   891.7    0.00 
 329   21:50   0.00   28.7    66    2.3   289     3.2   891.6    0.00 
 329   22:00   0.00   28.3    67    2.6   295     3.1   891.6    0.00 
 329   22:10   0.00   29.4    64    3.4   292     4.6   891.6    0.00 
 329   22:20   0.00   28.2    67    3.3   290     4.8   891.6    0.00 
 329   22:30   0.00   28.5    67    3.6   285     5.0   891.5    0.00 
 329   22:40   0.00   28.3    68    2.5   295     3.2   891.5    0.00 
 329   22:50   0.00   28.8    66    2.1   308     2.6   891.5    0.00 
 329   23:00   0.00   28.8    65    1.6   296     2.6   891.5    0.00 
 329   23:10   0.00   29.1    63    1.1   288     2.9   891.5    0.00 
 329   23:20   0.00   27.7    66    1.5   167     2.4   891.5    0.00 
 329   23:30   0.00   27.2    68    1.6   194     2.0   891.5    0.00 
 329   23:40   0.00   27.8    70    0.5   205     1.2   891.5    0.00 
 329   23:50   0.00   28.0    68    1.1   100     3.4   891.4    0.00 
 330    0:00   0.00   27.1    68    2.5   105     4.1   891.3    0.00 
 330    0:10   0.00   26.5    69    0.8   105     1.5   891.2    0.00 
 330    0:20   0.00   26.2    69    0.1   130     1.5   891.1    0.00 
 330    0:30   0.00   27.2    70    1.1   332     2.1   891.1    0.00 
 330    0:40   0.00   28.4    67    0.6   320     1.8   891.0    0.00 
 330    0:50   0.00   27.1    66    0.8   109     2.3   890.8    0.00 
 330    1:00   0.00   24.5    69    0.9   111     1.8   890.8    0.00 
 330    1:10   0.00   24.5    72    0.0   111     0.5   890.8    0.00 
 330    1:20   0.00   26.2    72    1.0   310     4.4   890.7    0.00 
 330    1:30   0.00   26.0    71    1.1   290     3.0   890.7    0.00 
 330    1:40   0.00   26.3    72    2.0   286     3.2   890.7    0.00 
 330    1:50   0.00   25.1    73    2.4   302     3.4   890.7    0.00 
 330    2:00   0.00   24.3    74    0.8   296     2.0   890.7    0.00 
 330    2:10   0.00   24.7    74    0.2   300     1.2   890.6    0.00 
 330    2:20   0.00   25.2    74    0.6   300     1.5   890.6    0.00 
 330    2:30   0.00   25.1    73    0.3   300     0.9   890.5    0.00 
 330    2:40   0.00   25.1    73    1.6   354     2.5   890.6    0.00 
 330    2:50   0.00   25.2    73    1.7     4     3.5   890.6    0.00 
 330    3:00   0.00   23.4    75    2.8   337     3.5   890.5    0.00 
 330    3:10   0.00   23.6    76    2.1   360     3.2   890.6    0.00 
 330    3:20   0.00   23.3    77    1.7     7     2.8   890.6    0.00 
 330    3:30   0.00   24.1    77    1.3     2     2.5   890.7    0.00 
 330    3:40   0.00   24.6    75    1.4   350     2.1   890.6    0.00 
 330    3:50   0.00   24.1    74    0.0     0     0.0   890.5    0.00 
 330    4:00   0.00   23.8    76    0.1   347     0.9   890.5    0.00 
 330    4:10   0.00   25.6    74    1.0   347     1.8   890.5    0.00 
 330    4:20   0.00   24.7    73    1.6   306     2.2   890.5    0.00 
 330    4:30   0.00   23.5    74    1.7   323     2.6   890.6    0.00 
 330    4:40   0.00   23.3    77    1.2   337     2.0   890.7    0.00 
 330    4:50   0.00   22.7    76    3.7   323     5.3   890.8    0.00 
 330    5:00   0.00   21.3    81    3.1   352     5.3   890.7    0.00 
 330    5:10   0.00   22.2    82    2.3    26     4.0   890.7    0.00 
 330    5:20   0.00   22.8    81    2.3     4     3.5   890.7    0.00 
 330    5:30   0.00   23.2    80    2.6     0     3.9   890.7    0.00 
 330    5:40   0.00   22.9    80    2.4   313     3.8   890.7    0.00 
 330    5:50   0.00   22.8    80    0.3   305     1.4   890.7    0.00 
 330    6:00   0.00   23.9    80    0.7   323     2.0   890.7    0.00 
 330    6:10   0.00   23.8    78    1.0   322     2.1   890.8    0.00 
 330    6:20   0.00   21.9    78    0.4   299     1.3   890.9    0.00 
 330    6:30   0.00   21.8    80    0.6   299     2.1   891.0    0.00 
 330    6:40   0.00   22.8    80    2.2   312     3.1   891.0    0.00 
 330    6:50   0.00   23.1    79    0.6   317     1.9   891.1    0.00 
 330    7:00   0.01   22.5    78    0.0     0     0.0   891.2    0.00 
 330    7:10   0.03   23.5    79    1.7   320     3.7   891.2    0.00 
 330    7:20   0.04   22.5    79    2.9   324     4.0   891.2    0.00 
 330    7:30   0.07   24.7    81    1.7   297     3.0   891.2    0.00 
 330    7:40   0.09   26.7    77    1.8   305     2.6   891.2    0.00 
 330    7:50   0.11   29.3    76    0.5   310     1.8   891.4    0.00 
 330    8:00   0.14   32.5    72    0.1   324     0.8   891.4    0.00 
 330    8:10   0.17   36.1    65    0.4   114     1.4   891.4    0.00 
 330    8:20   0.20   38.3    57    0.6    70     1.2   891.5    0.00 
 330    8:30   0.23   39.6    55    0.6    40     1.5   891.5    0.00 
 330    8:40   0.14   41.7    50    0.9    87     1.9   891.6    0.00 
 330    8:50   0.15   43.2    47    0.7    44     1.7   891.6    0.00 
 330    9:00   0.30   43.7    44    1.3   352     2.6   891.5    0.00 
 330    9:10   0.34   45.7    40    0.6   332     2.3   891.6    0.00 
 330    9:20   0.36   47.4    36    0.9    61     2.4   891.6    0.00 
 330    9:30   0.38   48.3    35    1.4   114     2.8   891.6    0.00 
 330    9:40   0.37   48.6    35    2.1   159     4.3   891.5    0.00 
 330    9:50   0.18   48.1    36    1.9   151     3.9   891.4    0.00 
 330   10:00   0.22   49.5    34    1.3   136     3.5   891.3    0.00 
 330   10:10   0.34   51.5    31    1.7   119     4.1   891.1    0.00 
 330   10:20   0.46   52.0    30    1.6   160     3.4   891.0    0.00 
 330   10:30   0.48   53.2    30    1.3   145     3.9   890.8    0.00 
 330   10:40   0.49   53.7    28    2.0   132     4.4   890.7    0.00 
 330   10:50   0.50   54.6    27    1.9   148     4.7   890.4    0.00 
 330   11:00   0.51   55.6    26    1.7   111     3.8   890.1    0.00 
 330   11:10   0.52   56.4    26    1.8   106     3.1   889.9    0.00 
 330   11:20   0.52   58.1    24    1.5   102     4.4   889.7    0.00 
 330   11:30   0.53   58.5    24    1.6   116     3.7   889.6    0.00 
 330   11:40   0.53   58.6    24    1.7   131     4.3   889.4    0.00 
 330   11:50   0.53   60.1    23    2.7   169     5.6   889.2    0.00 
 330   12:00   0.53   60.6    22    2.6   156     4.9   889.1    0.00 
 330   12:10   0.53   60.9    22    3.0   154     5.5   888.9    0.00 
 330   12:20   0.52   61.2    21    3.0   167     6.3   888.8    0.00 
 330   12:30   0.52   62.4    21    2.7   199     5.1   888.6    0.00 
 330   12:40   0.52   62.9    20    2.6   170     6.0   888.3    0.00 
 330   12:50   0.51   63.4    20    1.9   135     4.0   888.3    0.00 
 330   13:00   0.48   64.5    19    2.1   218     3.8   888.2    0.00 
 330   13:10   0.43   64.6    19    2.2   180     5.9   888.1    0.00 
 330   13:20   0.46   64.3    19    2.5   118     4.2   888.2    0.00 
 330   13:30   0.44   65.4    19    1.9   123     4.2   888.0    0.00 
 330   13:40   0.44   65.9    18    2.3   126     5.0   887.9    0.00 
 330   13:50   0.17   66.4    18    2.4   123     5.6   887.8    0.00 
 330   14:00   0.30   67.6    17    1.9   160     4.2   887.7    0.00 
 330   14:10   0.37   68.4    17    2.2   107     5.6   887.6    0.00 
 330   14:20   0.28   67.9    17    2.5   169     4.7   887.6    0.00 
 330   14:30   0.27   67.8    17    3.2   142     5.7   887.5    0.00 
 330   14:40   0.27   68.1    17    2.8   124     5.4   887.5    0.00 

Return to south Mason Valley graphs page.


Western Regional Climate Center,wrcc@dri.edu